createdAt,value
2023-05-17T00:00:56.007Z,36.10
2023-05-17T00:01:56.039Z,36.07
2023-05-17T00:02:56.115Z,36.07
2023-05-17T00:03:56.073Z,36.08
2023-05-17T00:04:56.292Z,36.12
2023-05-17T00:05:56.114Z,36.08
2023-05-17T00:06:56.152Z,36.09
2023-05-17T00:07:56.160Z,36.08
2023-05-17T00:08:56.200Z,36.08
2023-05-17T00:09:56.200Z,36.11
2023-05-17T00:10:56.205Z,36.09
2023-05-17T00:11:56.217Z,36.09
2023-05-17T00:12:56.266Z,36.09
2023-05-17T00:13:56.270Z,36.09
2023-05-17T00:14:56.356Z,36.11
2023-05-17T00:15:56.307Z,36.09
2023-05-17T00:16:56.362Z,36.12
2023-05-17T00:17:56.482Z,36.11
2023-05-17T00:18:56.429Z,36.10
2023-05-17T00:19:56.464Z,36.09
2023-05-17T00:20:56.425Z,36.10
2023-05-17T00:21:56.449Z,36.11
2023-05-17T00:22:56.468Z,36.11
2023-05-17T00:23:56.490Z,36.10
2023-05-17T00:24:56.533Z,36.09
2023-05-17T00:25:56.553Z,36.11
2023-05-17T00:26:56.555Z,36.08
2023-05-17T00:27:56.568Z,36.10
2023-05-17T00:28:56.632Z,36.09
2023-05-17T00:29:56.618Z,36.10
2023-05-17T00:30:56.722Z,36.09
2023-05-17T00:31:56.715Z,36.09
2023-05-17T00:32:56.721Z,36.06
2023-05-17T00:33:56.698Z,36.09
2023-05-17T00:34:56.840Z,36.06
2023-05-17T00:35:56.790Z,36.08
2023-05-17T00:36:56.812Z,36.08
2023-05-17T00:37:56.825Z,36.09
2023-05-17T00:38:56.829Z,36.10
2023-05-17T00:39:56.882Z,36.06
2023-05-17T00:40:56.928Z,36.10
2023-05-17T00:41:56.935Z,36.09
2023-05-17T00:42:56.937Z,36.09
2023-05-17T00:43:56.988Z,36.08
2023-05-17T00:44:57.066Z,36.09
2023-05-17T00:45:57.078Z,36.10
2023-05-17T00:46:57.133Z,36.08
2023-05-17T00:47:57.292Z,36.12
2023-05-17T00:48:57.159Z,36.08
2023-05-17T00:49:57.168Z,36.09
2023-05-17T00:50:57.156Z,36.11
2023-05-17T00:51:57.192Z,36.09
2023-05-17T00:52:57.321Z,36.10
2023-05-17T00:53:57.326Z,36.10
2023-05-17T00:54:57.289Z,36.10
2023-05-17T00:55:57.295Z,36.10
2023-05-17T00:56:57.333Z,36.09
2023-05-17T00:57:57.356Z,36.10
2023-05-17T00:58:57.365Z,36.09
2023-05-17T00:59:57.414Z,36.10
2023-05-17T01:00:57.432Z,36.10
2023-05-17T01:01:57.493Z,36.11
2023-05-17T01:02:57.850Z,36.11
2023-05-17T01:03:57.571Z,36.11
2023-05-17T01:04:57.687Z,36.09
2023-05-17T01:05:57.604Z,36.09
2023-05-17T01:06:57.572Z,36.09
2023-05-17T01:07:57.616Z,36.11
2023-05-17T01:08:57.635Z,36.13
2023-05-17T01:09:57.670Z,36.08
2023-05-17T01:10:57.694Z,36.10
2023-05-17T01:11:57.720Z,36.10
2023-05-17T01:12:57.760Z,36.10
2023-05-17T01:13:57.770Z,36.09
2023-05-17T01:14:57.840Z,36.08
2023-05-17T01:15:57.826Z,36.10
2023-05-17T01:16:57.814Z,36.08
2023-05-17T01:17:57.936Z,36.07
2023-05-17T01:18:58.254Z,36.08
2023-05-17T01:19:58.052Z,36.09
2023-05-17T01:20:57.910Z,36.08
2023-05-17T01:21:57.981Z,36.10
2023-05-17T01:22:57.963Z,36.09
2023-05-17T01:23:58.048Z,36.06
2023-05-17T01:24:58.058Z,36.09
2023-05-17T01:25:58.053Z,36.08
2023-05-17T01:26:58.099Z,36.07
2023-05-17T01:27:58.126Z,36.09
2023-05-17T01:28:58.146Z,36.11
2023-05-17T01:29:58.158Z,36.08
2023-05-17T01:30:58.208Z,36.10
2023-05-17T01:31:58.257Z,36.11
2023-05-17T01:32:58.392Z,36.08
2023-05-17T01:33:58.310Z,36.09
2023-05-17T01:34:58.357Z,36.09
2023-05-17T01:35:58.288Z,36.10
2023-05-17T01:36:58.406Z,36.07
2023-05-17T01:37:59.247Z,36.09
2023-05-17T01:38:58.379Z,36.09
2023-05-17T01:39:58.411Z,36.09
2023-05-17T01:40:58.476Z,36.08
2023-05-17T01:41:58.479Z,36.09
2023-05-17T01:42:58.506Z,36.09
2023-05-17T01:43:58.561Z,36.05
2023-05-17T01:44:58.599Z,36.08
2023-05-17T01:45:58.614Z,36.07
2023-05-17T01:46:58.621Z,36.07
2023-05-17T01:47:58.728Z,36.08
2023-05-17T01:48:58.721Z,36.08
2023-05-17T01:49:58.716Z,36.10
2023-05-17T01:50:58.896Z,36.10
2023-05-17T01:51:58.788Z,36.08
2023-05-17T01:52:58.845Z,36.07
2023-05-17T01:53:58.838Z,36.09
2023-05-17T01:54:58.885Z,36.10
2023-05-17T01:55:58.956Z,36.10
2023-05-17T01:56:58.970Z,36.08
2023-05-17T01:57:59.009Z,36.09
2023-05-17T01:58:58.987Z,36.07
2023-05-17T01:59:59.032Z,36.10
2023-05-17T02:00:59.066Z,36.09
2023-05-17T02:01:59.121Z,36.10
2023-05-17T02:02:59.170Z,36.06
2023-05-17T02:03:59.207Z,36.10
2023-05-17T02:04:59.241Z,36.07
2023-05-17T02:05:59.215Z,36.06
2023-05-17T02:06:59.329Z,36.09
2023-05-17T02:07:59.329Z,36.08
2023-05-17T02:08:59.349Z,36.07
2023-05-17T02:09:59.339Z,36.08
2023-05-17T02:10:59.369Z,36.06
2023-05-17T02:11:59.418Z,36.09
2023-05-17T02:12:59.421Z,36.06
2023-05-17T02:13:59.469Z,36.09
2023-05-17T02:14:59.495Z,36.07
2023-05-17T02:15:59.506Z,36.09
2023-05-17T02:16:59.590Z,36.08
2023-05-17T02:17:59.625Z,36.07
2023-05-17T02:18:59.677Z,36.08
2023-05-17T02:19:59.673Z,36.09
2023-05-17T02:20:59.686Z,36.08
2023-05-17T02:21:59.714Z,36.08
2023-05-17T02:22:59.891Z,36.08
2023-05-17T02:23:59.784Z,36.06
2023-05-17T02:24:59.806Z,36.10
2023-05-17T02:25:59.831Z,36.09
2023-05-17T02:26:59.865Z,36.11
2023-05-17T02:27:59.914Z,36.10
2023-05-17T02:28:59.910Z,36.08
2023-05-17T02:29:59.968Z,36.10
2023-05-17T02:30:59.994Z,36.10
2023-05-17T02:32:00.044Z,36.08
2023-05-17T02:33:00.121Z,36.11
2023-05-17T02:34:00.271Z,36.09
2023-05-17T02:35:00.186Z,36.10
2023-05-17T02:36:00.234Z,36.08
2023-05-17T02:37:00.233Z,36.10
2023-05-17T02:38:00.261Z,36.09
2023-05-17T02:39:00.422Z,36.06
2023-05-17T02:40:00.349Z,36.10
2023-05-17T02:41:00.393Z,36.09
2023-05-17T02:42:00.412Z,36.08
2023-05-17T02:43:00.438Z,36.11
2023-05-17T02:44:00.494Z,36.10
2023-05-17T02:45:00.497Z,36.06
2023-05-17T02:46:00.541Z,36.06
2023-05-17T02:47:00.688Z,36.07
2023-05-17T02:48:00.656Z,36.05
2023-05-17T02:49:00.653Z,36.11
2023-05-17T02:50:00.670Z,36.08
2023-05-17T02:51:00.749Z,36.08
2023-05-17T02:52:00.764Z,36.09
2023-05-17T02:53:00.785Z,36.08
2023-05-17T02:54:00.884Z,36.09
2023-05-17T02:55:00.899Z,36.08
2023-05-17T02:56:00.926Z,36.10
2023-05-17T02:57:00.929Z,36.08
2023-05-17T02:58:00.993Z,36.11
2023-05-17T02:59:01.018Z,36.13
2023-05-17T03:00:01.041Z,36.08
2023-05-17T03:01:01.088Z,36.09
2023-05-17T03:02:01.124Z,36.09
2023-05-17T03:03:01.210Z,36.10
2023-05-17T03:04:01.392Z,36.09
2023-05-17T03:05:01.216Z,36.08
2023-05-17T03:06:01.280Z,36.09
2023-05-17T03:07:01.301Z,36.09
2023-05-17T03:08:01.374Z,36.08
2023-05-17T03:09:01.381Z,36.10
2023-05-17T03:10:01.428Z,36.09
2023-05-17T03:11:01.523Z,36.09
2023-05-17T03:12:01.465Z,36.09
2023-05-17T03:13:01.543Z,36.10
2023-05-17T03:14:01.619Z,36.11
2023-05-17T03:15:01.621Z,36.10
2023-05-17T03:16:01.676Z,36.10
2023-05-17T03:17:01.694Z,36.10
2023-05-17T03:18:01.756Z,36.10
2023-05-17T03:19:02.018Z,36.07
2023-05-17T03:20:01.920Z,36.07
2023-05-17T03:21:01.819Z,36.08
2023-05-17T03:22:01.881Z,36.09
2023-05-17T03:23:01.911Z,36.08
2023-05-17T03:24:01.998Z,36.07
2023-05-17T03:25:01.957Z,36.08
2023-05-17T03:26:02.054Z,36.07
2023-05-17T03:27:02.128Z,36.09
2023-05-17T03:28:02.113Z,36.09
2023-05-17T03:29:02.145Z,36.08
2023-05-17T03:30:02.270Z,36.08
2023-05-17T03:31:02.271Z,36.08
2023-05-17T03:32:02.216Z,36.08
2023-05-17T03:33:02.367Z,36.08
2023-05-17T03:34:02.517Z,36.07
2023-05-17T03:35:02.376Z,36.08
2023-05-17T03:36:02.412Z,36.09
2023-05-17T03:37:02.447Z,36.08
2023-05-17T03:38:02.487Z,36.08
2023-05-17T03:39:02.498Z,36.07
2023-05-17T03:40:02.554Z,36.08
2023-05-17T03:41:02.566Z,36.07
2023-05-17T03:42:02.618Z,36.09
2023-05-17T03:43:02.735Z,36.08
2023-05-17T03:44:02.685Z,36.08
2023-05-17T03:45:02.725Z,36.09
2023-05-17T03:46:02.753Z,36.08
2023-05-17T03:47:02.794Z,36.08
2023-05-17T03:48:02.845Z,36.08
2023-05-17T03:49:02.943Z,36.08
2023-05-17T03:50:02.899Z,36.09
2023-05-17T03:51:02.937Z,36.07
2023-05-17T03:52:02.959Z,36.07
2023-05-17T03:53:03.001Z,36.06
2023-05-17T03:54:03.031Z,36.07
2023-05-17T03:55:03.046Z,36.05
2023-05-17T03:56:03.153Z,36.09
2023-05-17T03:57:03.143Z,36.08
2023-05-17T03:58:03.183Z,36.11
2023-05-17T03:59:03.285Z,36.10
2023-05-17T04:00:03.284Z,36.08
2023-05-17T04:01:03.270Z,36.08
2023-05-17T04:02:03.331Z,36.06
2023-05-17T04:03:03.422Z,36.08
2023-05-17T04:04:03.398Z,35.95
2023-05-17T04:05:03.464Z,35.83
2023-05-17T04:06:03.453Z,35.70
2023-05-17T04:07:03.445Z,35.64
2023-05-17T04:08:03.477Z,35.52
2023-05-17T04:09:03.518Z,35.43
2023-05-17T04:10:03.555Z,35.40
2023-05-17T04:11:03.585Z,35.33
2023-05-17T04:12:03.645Z,35.26
2023-05-17T04:13:03.631Z,35.20
2023-05-17T04:14:03.659Z,35.17
2023-05-17T04:15:03.744Z,35.10
2023-05-17T04:16:03.697Z,35.09
2023-05-17T04:17:03.730Z,35.05
2023-05-17T04:18:03.875Z,34.96
2023-05-17T04:19:03.913Z,34.97
2023-05-17T04:20:03.862Z,34.92
2023-05-17T04:21:03.913Z,34.91
2023-05-17T04:22:03.931Z,34.82
2023-05-17T04:23:03.983Z,34.83
2023-05-17T04:24:04.012Z,34.80
2023-05-17T04:25:04.054Z,34.75
2023-05-17T04:26:04.057Z,34.70
2023-05-17T04:27:04.109Z,34.64
2023-05-17T04:28:04.187Z,34.66
2023-05-17T04:29:04.225Z,34.66
2023-05-17T04:30:04.214Z,34.62
2023-05-17T04:31:04.294Z,34.66
2023-05-17T04:32:04.302Z,34.68
2023-05-17T04:33:04.434Z,34.68
2023-05-17T04:34:04.462Z,34.73
2023-05-17T04:35:04.464Z,34.75
2023-05-17T04:36:04.525Z,34.69
2023-05-17T04:37:04.583Z,34.69
2023-05-17T04:38:04.659Z,34.72
2023-05-17T04:39:04.703Z,34.68
2023-05-17T04:40:04.755Z,34.66
2023-05-17T04:41:04.853Z,34.66
2023-05-17T04:42:04.883Z,34.70
2023-05-17T04:43:04.961Z,34.66
2023-05-17T04:44:04.989Z,34.66
2023-05-17T04:45:05.053Z,34.67
2023-05-17T04:46:05.128Z,34.67
2023-05-17T04:47:05.254Z,34.67
2023-05-17T04:48:05.267Z,34.70
2023-05-17T04:49:05.344Z,34.68
2023-05-17T04:50:05.339Z,34.67
2023-05-17T04:51:05.396Z,34.67
2023-05-17T04:52:06.257Z,34.69
2023-05-17T04:53:05.501Z,34.71
2023-05-17T04:54:05.566Z,34.72
2023-05-17T04:55:05.642Z,34.70
2023-05-17T04:56:05.687Z,34.72
2023-05-17T04:57:05.744Z,34.72
2023-05-17T04:58:05.811Z,34.70
2023-05-17T04:59:05.862Z,34.70
2023-05-17T05:00:05.892Z,34.71
2023-05-17T05:01:05.968Z,34.69
2023-05-17T05:02:05.982Z,34.74
2023-05-17T05:03:06.181Z,34.73
2023-05-17T05:04:06.304Z,34.72
2023-05-17T05:05:06.195Z,34.73
2023-05-17T05:06:06.214Z,34.75
2023-05-17T05:07:06.271Z,34.74
2023-05-17T05:08:06.341Z,34.75
2023-05-17T05:09:06.341Z,34.78
2023-05-17T05:10:06.393Z,34.77
2023-05-17T05:11:06.459Z,34.76
2023-05-17T05:12:06.521Z,34.80
2023-05-17T05:13:06.568Z,34.79
2023-05-17T05:14:06.597Z,34.81
2023-05-17T05:15:06.691Z,34.79
2023-05-17T05:16:06.790Z,34.79
2023-05-17T05:17:06.743Z,34.77
2023-05-17T05:18:06.947Z,34.85
2023-05-17T05:19:07.042Z,34.81
2023-05-17T05:20:06.932Z,34.78
2023-05-17T05:21:06.927Z,34.78
2023-05-17T05:22:07.027Z,34.83
2023-05-17T05:23:07.050Z,34.80
2023-05-17T05:24:07.109Z,34.80
2023-05-17T05:25:07.155Z,34.83
2023-05-17T05:26:07.232Z,34.83
2023-05-17T05:27:07.374Z,34.80
2023-05-17T05:28:07.330Z,34.81
2023-05-17T05:29:07.341Z,34.80
2023-05-17T05:30:07.389Z,34.77
2023-05-17T05:31:07.459Z,34.66
2023-05-17T05:32:07.494Z,34.58
2023-05-17T05:33:07.640Z,34.49
2023-05-17T05:34:07.711Z,34.37
2023-05-17T05:35:07.744Z,34.29
2023-05-17T05:36:07.748Z,34.37
2023-05-17T05:37:07.810Z,34.35
2023-05-17T05:38:07.867Z,34.50
2023-05-17T05:39:09.226Z,34.55
2023-05-17T05:40:07.924Z,34.69
2023-05-17T05:41:08.041Z,34.81
2023-05-17T05:42:08.004Z,35.12
2023-05-17T05:43:08.121Z,34.79
2023-05-17T05:44:08.142Z,35.11
2023-05-17T05:45:08.144Z,35.08
2023-05-17T05:46:08.209Z,35.55
2023-05-17T05:47:08.258Z,35.41
2023-05-17T05:48:08.370Z,35.47
2023-05-17T05:49:08.410Z,35.78
2023-05-17T05:50:08.422Z,35.74
2023-05-17T05:51:08.596Z,35.64
2023-05-17T05:52:08.522Z,35.79
2023-05-17T05:53:18.170Z,35.65
2023-05-17T05:54:09.564Z,35.67
2023-05-17T05:55:08.544Z,35.65
2023-05-17T05:56:08.559Z,35.65
2023-05-17T05:57:08.554Z,35.52
2023-05-17T05:58:08.524Z,35.53
2023-05-17T05:59:08.538Z,35.58
2023-05-17T06:00:08.525Z,35.55
2023-05-17T06:01:09.473Z,35.47
2023-05-17T06:02:08.489Z,35.51
2023-05-17T06:03:08.527Z,35.47
2023-05-17T06:04:08.564Z,35.52
2023-05-17T06:05:08.552Z,35.54
2023-05-17T06:06:08.688Z,35.46
2023-05-17T06:07:08.756Z,35.49
2023-05-17T06:08:08.661Z,35.45
2023-05-17T06:09:08.725Z,35.49
2023-05-17T06:10:08.784Z,35.45
2023-05-17T06:11:08.825Z,35.45
2023-05-17T06:12:08.887Z,35.45
2023-05-17T06:13:08.950Z,35.41
2023-05-17T06:14:08.943Z,35.39
2023-05-17T06:15:08.964Z,35.43
2023-05-17T06:16:09.060Z,35.44
2023-05-17T06:17:09.064Z,35.47
2023-05-17T06:18:09.217Z,35.43
2023-05-17T06:19:09.228Z,35.41
2023-05-17T06:20:09.233Z,35.39
2023-05-17T06:21:09.241Z,35.45
2023-05-17T06:22:09.247Z,35.37
2023-05-17T06:23:09.315Z,35.36
2023-05-17T06:24:09.329Z,35.34
2023-05-17T06:25:09.376Z,35.26
2023-05-17T06:26:09.388Z,35.34
2023-05-17T06:27:09.453Z,35.30
2023-05-17T06:28:09.489Z,35.24
2023-05-17T06:29:09.501Z,35.30
2023-05-17T06:30:09.528Z,35.28
2023-05-17T06:31:09.546Z,35.35
2023-05-17T06:32:09.591Z,35.36
2023-05-17T06:33:09.692Z,35.23
2023-05-17T06:34:09.735Z,35.38
2023-05-17T06:35:10.021Z,35.22
2023-05-17T06:36:09.817Z,35.39
2023-05-17T06:37:09.834Z,35.03
2023-05-17T06:38:09.920Z,34.53
2023-05-17T06:39:10.044Z,34.39
2023-05-17T06:40:16.012Z,34.00
2023-05-17T06:41:11.476Z,33.95
2023-05-17T06:42:09.971Z,33.54
2023-05-17T06:43:09.939Z,33.32
2023-05-17T06:44:09.976Z,33.47
2023-05-17T06:45:09.933Z,33.37
2023-05-17T06:46:09.903Z,33.53
2023-05-17T06:47:09.903Z,33.66
2023-05-17T06:48:10.025Z,33.94
2023-05-17T06:49:10.068Z,34.05
2023-05-17T06:50:09.906Z,34.20
2023-05-17T06:51:09.852Z,34.27
2023-05-17T06:52:09.872Z,34.31
2023-05-17T06:53:09.887Z,34.31
2023-05-17T06:54:09.876Z,34.27
2023-05-17T06:55:10.031Z,34.26
2023-05-17T06:56:09.928Z,34.28
2023-05-17T06:57:09.927Z,34.34
2023-05-17T06:58:09.950Z,34.36
2023-05-17T06:59:09.994Z,34.49
2023-05-17T07:00:10.059Z,34.43
2023-05-17T07:01:10.496Z,34.46
2023-05-17T07:02:10.154Z,34.43
2023-05-17T07:03:10.297Z,34.51
2023-05-17T07:04:10.294Z,34.43
2023-05-17T07:05:10.424Z,34.37
2023-05-17T07:06:10.398Z,34.35
2023-05-17T07:07:10.476Z,34.39
2023-05-17T07:08:10.550Z,34.39
2023-05-17T07:09:10.585Z,34.46
2023-05-17T07:10:10.603Z,34.43
2023-05-17T07:11:10.851Z,34.41
2023-05-17T07:12:10.782Z,34.42
2023-05-17T07:13:10.731Z,34.33
2023-05-17T07:14:10.807Z,34.39
2023-05-17T07:15:10.865Z,34.36
2023-05-17T07:16:10.870Z,34.31
2023-05-17T07:17:10.968Z,34.31
2023-05-17T07:18:11.065Z,34.29
2023-05-17T07:19:11.046Z,34.30
2023-05-17T07:20:11.401Z,34.28
2023-05-17T07:21:11.141Z,34.30
2023-05-17T07:22:11.115Z,34.32
2023-05-17T07:23:11.195Z,34.39
2023-05-17T07:24:11.225Z,34.33
2023-05-17T07:25:11.515Z,34.34
2023-05-17T07:26:11.317Z,34.29
2023-05-17T07:27:11.458Z,34.29
2023-05-17T07:28:11.377Z,34.20
2023-05-17T07:29:11.439Z,34.23
2023-05-17T07:30:11.467Z,34.36
2023-05-17T07:31:12.050Z,34.03
2023-05-17T07:32:11.577Z,34.14
2023-05-17T07:33:11.625Z,33.84
2023-05-17T07:34:11.648Z,34.05
2023-05-17T07:35:11.707Z,34.00
2023-05-17T07:36:11.765Z,33.59
2023-05-17T07:37:11.766Z,33.70
2023-05-17T07:38:12.052Z,33.94
2023-05-17T07:39:11.982Z,34.16
2023-05-17T07:40:11.927Z,34.21
2023-05-17T07:41:11.999Z,34.17
2023-05-17T07:42:11.968Z,34.14
2023-05-17T07:43:12.244Z,34.17
2023-05-17T07:44:12.988Z,34.18
2023-05-17T07:45:12.130Z,34.15
2023-05-17T07:46:12.165Z,34.20
2023-05-17T07:47:12.546Z,34.24
2023-05-17T07:48:12.302Z,34.23
2023-05-17T07:49:12.353Z,34.20
2023-05-17T07:50:12.345Z,34.27
2023-05-17T07:51:12.391Z,34.18
2023-05-17T07:52:12.417Z,34.23
2023-05-17T07:53:12.480Z,34.26
2023-05-17T07:54:12.468Z,34.28
2023-05-17T07:55:13.755Z,34.27
2023-05-17T07:56:12.562Z,34.21
2023-05-17T07:57:12.590Z,34.23
2023-05-17T07:58:12.707Z,34.29
2023-05-17T07:59:12.669Z,34.28
2023-05-17T08:00:12.774Z,34.28
2023-05-17T08:01:12.758Z,34.26
2023-05-17T08:02:12.924Z,34.26
2023-05-17T08:03:14.453Z,34.25
2023-05-17T08:04:12.848Z,34.12
2023-05-17T08:05:13.034Z,34.06
2023-05-17T08:06:12.833Z,34.11
2023-05-17T08:07:12.789Z,34.17
2023-05-17T08:08:12.761Z,34.11
2023-05-17T08:09:12.758Z,34.14
2023-05-17T08:10:12.738Z,34.19
2023-05-17T08:11:12.724Z,34.14
2023-05-17T08:12:13.050Z,34.12
2023-05-17T08:13:12.697Z,34.14
2023-05-17T08:14:12.717Z,34.20
2023-05-17T08:15:12.727Z,34.18
2023-05-17T08:16:14.620Z,34.23
2023-05-17T08:17:12.699Z,34.18
2023-05-17T08:18:12.811Z,34.17
2023-05-17T08:19:12.824Z,34.08
2023-05-17T08:20:13.146Z,34.09
2023-05-17T08:21:12.660Z,34.28
2023-05-17T08:22:12.664Z,34.27
2023-05-17T08:23:12.696Z,34.41
2023-05-17T08:24:12.996Z,34.22
2023-05-17T08:25:12.646Z,34.11
2023-05-17T08:26:12.664Z,34.06
2023-05-17T08:27:12.669Z,34.00
2023-05-17T08:28:12.613Z,33.89
2023-05-17T08:29:12.660Z,33.76
2023-05-17T08:30:18.024Z,33.68
2023-05-17T08:31:13.736Z,33.61
2023-05-17T08:32:13.457Z,33.47
2023-05-17T08:33:12.728Z,33.47
2023-05-17T08:34:12.757Z,33.51
2023-05-17T08:35:12.614Z,33.42
2023-05-17T08:36:12.612Z,33.34
2023-05-17T08:37:12.649Z,33.40
2023-05-17T08:38:12.585Z,33.31
2023-05-17T08:39:12.582Z,33.22
2023-05-17T08:40:12.627Z,33.15
2023-05-17T08:41:12.530Z,33.29
2023-05-17T08:42:12.580Z,33.39
2023-05-17T08:43:12.549Z,34.02
2023-05-17T08:44:12.544Z,33.93
2023-05-17T08:45:12.554Z,33.87
2023-05-17T08:46:12.528Z,33.90
2023-05-17T08:47:12.515Z,33.94
2023-05-17T08:48:12.699Z,33.94
2023-05-17T08:49:13.145Z,34.07
2023-05-17T08:50:12.621Z,34.18
2023-05-17T08:51:12.621Z,34.19
2023-05-17T08:52:12.621Z,34.22
2023-05-17T08:53:12.736Z,34.22
2023-05-17T08:54:13.056Z,34.31
2023-05-17T08:55:12.671Z,34.47
2023-05-17T08:56:12.689Z,34.44
2023-05-17T08:57:12.713Z,34.42
2023-05-17T08:58:12.764Z,34.61
2023-05-17T08:59:12.795Z,34.62
2023-05-17T09:00:12.839Z,34.56
2023-05-17T09:01:12.779Z,34.64
2023-05-17T09:02:12.776Z,34.64
2023-05-17T09:03:12.824Z,34.65
2023-05-17T09:04:12.849Z,34.61
2023-05-17T09:05:12.852Z,34.59
2023-05-17T09:06:12.784Z,34.75
2023-05-17T09:07:13.537Z,34.77
2023-05-17T09:08:12.751Z,34.74
2023-05-17T09:09:12.809Z,34.83
2023-05-17T09:10:12.805Z,34.90
2023-05-17T09:11:12.819Z,34.93
2023-05-17T09:12:12.859Z,34.90
2023-05-17T09:13:12.811Z,34.93
2023-05-17T09:14:12.788Z,34.90
2023-05-17T09:15:12.808Z,34.97
2023-05-17T09:16:12.816Z,35.12
2023-05-17T09:17:13.047Z,35.02
2023-05-17T09:18:12.906Z,34.97
2023-05-17T09:19:12.935Z,35.01
2023-05-17T09:20:13.033Z,35.18
2023-05-17T09:21:12.824Z,35.20
2023-05-17T09:22:13.440Z,35.12
2023-05-17T09:23:13.001Z,35.24
2023-05-17T09:24:12.849Z,35.24
2023-05-17T09:25:12.862Z,35.34
2023-05-17T09:26:12.852Z,35.23
2023-05-17T09:27:12.867Z,35.53
2023-05-17T09:28:12.870Z,35.74
2023-05-17T09:29:12.927Z,35.54
2023-05-17T09:30:12.901Z,35.33
2023-05-17T09:31:13.051Z,35.27
2023-05-17T09:32:12.830Z,35.01
2023-05-17T09:33:14.141Z,34.35
2023-05-17T09:34:12.922Z,34.27
2023-05-17T09:35:12.832Z,34.42
2023-05-17T09:36:12.780Z,34.42
2023-05-17T09:37:12.822Z,34.47
2023-05-17T09:38:12.860Z,34.49
2023-05-17T09:39:12.975Z,34.42
2023-05-17T09:40:12.765Z,34.46
2023-05-17T09:41:12.825Z,34.41
2023-05-17T09:42:12.749Z,34.43
2023-05-17T09:43:12.724Z,34.43
2023-05-17T09:44:12.811Z,34.27
2023-05-17T09:45:12.736Z,34.27
2023-05-17T09:46:13.054Z,34.27
2023-05-17T09:47:12.732Z,34.23
2023-05-17T09:48:12.851Z,34.19
2023-05-17T09:49:12.740Z,34.12
2023-05-17T09:50:12.737Z,34.13
2023-05-17T09:51:12.761Z,34.11
2023-05-17T09:52:12.736Z,34.05
2023-05-17T09:53:12.692Z,34.05
2023-05-17T09:54:12.703Z,34.04
2023-05-17T09:55:12.686Z,34.00
2023-05-17T09:56:12.709Z,33.96
2023-05-17T09:57:12.695Z,33.90
2023-05-17T09:58:13.105Z,33.91
2023-05-17T09:59:12.687Z,33.94
2023-05-17T10:00:13.088Z,33.89
2023-05-17T10:01:12.652Z,33.85
2023-05-17T10:02:12.627Z,33.81
2023-05-17T10:03:12.705Z,33.73
2023-05-17T10:04:12.712Z,33.77
2023-05-17T10:05:13.162Z,33.82
2023-05-17T10:06:19.643Z,33.70
2023-05-17T10:07:13.580Z,33.70
2023-05-17T10:08:12.598Z,33.68
2023-05-17T10:09:12.562Z,33.67
2023-05-17T10:10:12.567Z,33.69
2023-05-17T10:11:12.602Z,33.60
2023-05-17T10:12:12.562Z,33.62
2023-05-17T10:13:12.641Z,33.59
2023-05-17T10:14:12.569Z,33.57
2023-05-17T10:15:12.666Z,33.62
2023-05-17T10:16:12.574Z,33.57
2023-05-17T10:17:12.516Z,33.56
2023-05-17T10:18:12.577Z,33.57
2023-05-17T10:19:12.624Z,33.62
2023-05-17T10:20:12.584Z,33.60
2023-05-17T10:21:12.591Z,33.65
2023-05-17T10:22:22.410Z,33.79
2023-05-17T10:23:13.571Z,33.68
2023-05-17T10:24:12.481Z,33.68
2023-05-17T10:25:12.544Z,33.68
2023-05-17T10:26:12.586Z,34.08
2023-05-17T10:27:12.477Z,34.12
2023-05-17T10:28:12.453Z,33.94
2023-05-17T10:29:12.482Z,33.69
2023-05-17T10:30:12.437Z,33.51
2023-05-17T10:31:12.452Z,33.78
2023-05-17T10:32:12.491Z,33.73
2023-05-17T10:33:12.563Z,33.54
2023-05-17T10:34:12.523Z,33.82
2023-05-17T10:35:12.475Z,33.82
2023-05-17T10:36:12.381Z,33.88
2023-05-17T10:37:12.423Z,33.89
2023-05-17T10:38:12.547Z,33.89
2023-05-17T10:39:12.363Z,33.90
2023-05-17T10:40:12.371Z,33.93
2023-05-17T10:41:12.375Z,34.07
2023-05-17T10:42:15.140Z,34.07
2023-05-17T10:43:12.551Z,34.05
2023-05-17T10:44:12.334Z,34.06
2023-05-17T10:45:12.306Z,34.08
2023-05-17T10:46:12.306Z,34.08
2023-05-17T10:47:12.324Z,34.03
2023-05-17T10:48:12.404Z,34.09
2023-05-17T10:49:12.618Z,34.05
2023-05-17T10:50:12.260Z,34.07
2023-05-17T10:51:12.361Z,34.13
2023-05-17T10:52:12.235Z,34.15
2023-05-17T10:53:12.299Z,34.06
2023-05-17T10:54:12.249Z,34.02
2023-05-17T10:55:12.346Z,33.97
2023-05-17T10:56:12.245Z,34.10
2023-05-17T10:57:12.250Z,34.16
2023-05-17T10:58:12.258Z,34.13
2023-05-17T10:59:12.223Z,34.03
2023-05-17T11:00:12.973Z,34.09
2023-05-17T11:01:12.192Z,33.98
2023-05-17T11:02:12.210Z,34.08
2023-05-17T11:03:12.293Z,33.98
2023-05-17T11:04:12.295Z,33.97
2023-05-17T11:05:12.373Z,34.09
2023-05-17T11:06:22.020Z,33.95
2023-05-17T11:07:13.225Z,34.09
2023-05-17T11:08:12.159Z,33.93
2023-05-17T11:09:12.172Z,34.08
2023-05-17T11:10:12.156Z,34.10
2023-05-17T11:11:12.164Z,34.15
2023-05-17T11:12:12.122Z,34.26
2023-05-17T11:13:12.146Z,34.26
2023-05-17T11:14:12.117Z,34.25
2023-05-17T11:15:12.104Z,34.56
2023-05-17T11:16:12.170Z,34.43
2023-05-17T11:17:12.096Z,34.16
2023-05-17T11:18:26.270Z,33.97
2023-05-17T11:19:13.164Z,33.87
2023-05-17T11:20:13.856Z,33.67
2023-05-17T11:21:12.087Z,33.53
2023-05-17T11:22:12.046Z,33.47
2023-05-17T11:23:12.114Z,33.45
2023-05-17T11:24:12.081Z,33.35
2023-05-17T11:25:12.070Z,33.26
2023-05-17T11:26:16.165Z,33.17
2023-05-17T11:27:12.014Z,33.18
2023-05-17T11:28:12.004Z,33.12
2023-05-17T11:29:12.026Z,33.00
2023-05-17T11:30:12.019Z,32.91
2023-05-17T11:31:12.018Z,32.90
2023-05-17T11:32:11.990Z,32.85
2023-05-17T11:33:21.239Z,32.79
2023-05-17T11:34:13.006Z,32.74
2023-05-17T11:35:12.014Z,32.72
2023-05-17T11:36:12.025Z,32.70
2023-05-17T11:37:11.972Z,32.62
2023-05-17T11:38:11.945Z,32.59
2023-05-17T11:39:11.939Z,32.58
2023-05-17T11:40:11.974Z,32.50
2023-05-17T11:41:19.535Z,32.45
2023-05-17T11:42:12.920Z,32.49
2023-05-17T11:43:11.953Z,32.41
2023-05-17T11:44:12.050Z,32.37
2023-05-17T11:45:11.938Z,32.34
2023-05-17T11:46:11.857Z,32.37
2023-05-17T11:47:11.934Z,32.39
2023-05-17T11:48:11.990Z,32.36
2023-05-17T11:49:17.690Z,32.37
2023-05-17T11:50:12.871Z,32.36
2023-05-17T11:51:11.850Z,32.26
2023-05-17T11:52:11.824Z,32.25
2023-05-17T11:53:11.841Z,32.30
2023-05-17T11:54:11.826Z,32.34
2023-05-17T11:55:11.832Z,32.37
2023-05-17T11:56:11.830Z,32.39
2023-05-17T11:57:11.864Z,32.42
2023-05-17T11:58:11.787Z,32.50
2023-05-17T11:59:11.784Z,32.49
2023-05-17T12:00:11.816Z,32.49
2023-05-17T12:01:11.808Z,32.49
2023-05-17T12:02:11.762Z,32.50
2023-05-17T12:03:11.800Z,32.57
2023-05-17T12:04:11.783Z,32.54
2023-05-17T12:05:11.739Z,32.56
2023-05-17T12:06:11.773Z,32.60
2023-05-17T12:07:11.733Z,32.55
2023-05-17T12:08:11.743Z,32.60
2023-05-17T12:09:11.734Z,32.66
2023-05-17T12:10:11.717Z,32.63
2023-05-17T12:11:11.693Z,32.62
2023-05-17T12:12:11.757Z,32.63
2023-05-17T12:13:11.776Z,32.60
2023-05-17T12:14:11.798Z,32.65
2023-05-17T12:15:11.798Z,32.63
2023-05-17T12:16:11.926Z,32.70
2023-05-17T12:17:11.869Z,32.70
2023-05-17T12:18:12.006Z,32.71
2023-05-17T12:19:12.069Z,32.72
2023-05-17T12:20:11.990Z,32.76
2023-05-17T12:21:11.916Z,32.79
2023-05-17T12:22:11.933Z,32.78
2023-05-17T12:23:12.011Z,32.84
2023-05-17T12:24:12.024Z,32.82
2023-05-17T12:25:12.030Z,32.82
2023-05-17T12:26:12.031Z,32.83
2023-05-17T12:27:12.039Z,32.87
2023-05-17T12:28:12.032Z,32.86
2023-05-17T12:29:12.284Z,32.89
2023-05-17T12:30:12.155Z,32.90
2023-05-17T12:31:12.136Z,32.88
2023-05-17T12:32:12.090Z,32.88
2023-05-17T12:33:12.238Z,32.93
2023-05-17T12:34:12.189Z,32.98
2023-05-17T12:35:12.263Z,32.97
2023-05-17T12:36:12.165Z,32.94
2023-05-17T12:37:12.166Z,32.96
2023-05-17T12:38:12.221Z,32.94
2023-05-17T12:39:12.232Z,32.94
2023-05-17T12:40:12.404Z,32.97
2023-05-17T12:41:12.264Z,33.00
2023-05-17T12:42:12.265Z,32.98
2023-05-17T12:43:12.337Z,32.99
2023-05-17T12:44:15.940Z,32.94
2023-05-17T12:45:12.306Z,33.03
2023-05-17T12:46:12.301Z,33.02
2023-05-17T12:47:12.309Z,33.04
2023-05-17T12:48:12.390Z,33.06
2023-05-17T12:49:12.401Z,33.06
2023-05-17T12:50:12.294Z,33.08
2023-05-17T12:51:12.411Z,33.07
2023-05-17T12:52:12.269Z,33.09
2023-05-17T12:53:12.315Z,33.07